createdAt,value
2023-05-19T00:00:48.979Z,0.64
2023-05-19T00:01:47.237Z,0.64
2023-05-19T00:02:47.340Z,0.63
2023-05-19T00:03:47.219Z,0.64
2023-05-19T00:04:47.220Z,0.62
2023-05-19T00:05:47.221Z,0.63
2023-05-19T00:06:47.205Z,0.63
2023-05-19T00:07:47.197Z,0.63
2023-05-19T00:08:47.192Z,0.64
2023-05-19T00:09:47.208Z,0.63
2023-05-19T00:10:47.186Z,0.63
2023-05-19T00:11:47.166Z,0.64
2023-05-19T00:12:48.096Z,0.64
2023-05-19T00:13:47.149Z,0.63
2023-05-19T00:14:47.139Z,0.64
2023-05-19T00:15:47.144Z,0.64
2023-05-19T00:16:47.144Z,0.62
2023-05-19T00:17:47.134Z,0.63
2023-05-19T00:18:47.124Z,0.63
2023-05-19T00:19:47.114Z,0.64
2023-05-19T00:20:47.110Z,0.62
2023-05-19T00:21:47.141Z,0.63
2023-05-19T00:22:47.100Z,0.63
2023-05-19T00:23:47.119Z,0.62
2023-05-19T00:24:47.105Z,0.62
2023-05-19T00:25:47.120Z,0.61
2023-05-19T00:26:47.091Z,0.63
2023-05-19T00:27:47.083Z,0.63
2023-05-19T00:28:47.072Z,0.61
2023-05-19T00:29:47.066Z,0.63
2023-05-19T00:30:47.085Z,0.65
2023-05-19T00:31:47.068Z,0.62
2023-05-19T00:32:47.147Z,0.64
2023-05-19T00:33:47.069Z,0.62
2023-05-19T00:34:47.075Z,0.63
2023-05-19T00:35:47.066Z,0.64
2023-05-19T00:36:47.076Z,0.63
2023-05-19T00:37:47.069Z,0.62
2023-05-19T00:38:47.051Z,0.63
2023-05-19T00:39:47.044Z,0.63
2023-05-19T00:40:47.048Z,0.62
2023-05-19T00:41:47.086Z,0.62
2023-05-19T00:42:47.039Z,0.63
2023-05-19T00:43:47.062Z,0.62
2023-05-19T00:44:47.030Z,0.62
2023-05-19T00:45:47.044Z,0.62
2023-05-19T00:46:47.122Z,0.63
2023-05-19T00:47:47.068Z,0.63
2023-05-19T00:48:47.044Z,0.62
2023-05-19T00:49:47.095Z,0.63
2023-05-19T00:50:47.047Z,0.61
2023-05-19T00:51:47.018Z,0.63
2023-05-19T00:52:47.010Z,0.62
2023-05-19T00:53:47.007Z,0.63
2023-05-19T00:54:47.000Z,0.63
2023-05-19T00:55:47.008Z,0.63
2023-05-19T00:56:47.006Z,0.63
2023-05-19T00:57:46.989Z,0.63
2023-05-19T00:58:46.988Z,0.64
2023-05-19T00:59:46.994Z,0.63
2023-05-19T01:00:46.980Z,0.65
2023-05-19T01:01:46.968Z,0.63
2023-05-19T01:02:47.023Z,0.64
2023-05-19T01:03:47.201Z,0.65
2023-05-19T01:04:46.959Z,0.63
2023-05-19T01:05:46.947Z,0.63
2023-05-19T01:06:46.964Z,0.63
2023-05-19T01:07:46.932Z,0.65
2023-05-19T01:08:46.934Z,0.64
2023-05-19T01:09:46.928Z,0.64
2023-05-19T01:10:46.946Z,0.63
2023-05-19T01:11:46.982Z,0.63
2023-05-19T01:12:46.989Z,0.63
2023-05-19T01:13:47.026Z,0.64
2023-05-19T01:14:47.030Z,0.63
2023-05-19T01:15:47.062Z,0.64
2023-05-19T01:16:47.143Z,0.64
2023-05-19T01:17:47.093Z,0.63
2023-05-19T01:18:47.146Z,0.63
2023-05-19T01:19:47.128Z,0.62
2023-05-19T01:20:47.172Z,0.63
2023-05-19T01:21:47.184Z,0.63
2023-05-19T01:22:47.206Z,0.63
2023-05-19T01:23:47.209Z,0.63
2023-05-19T01:24:47.236Z,0.63
2023-05-19T01:25:47.262Z,0.62
2023-05-19T01:26:47.291Z,0.64
2023-05-19T01:27:47.314Z,0.64
2023-05-19T01:28:47.321Z,0.63
2023-05-19T01:29:47.376Z,0.64
2023-05-19T01:30:47.383Z,0.64
2023-05-19T01:31:47.494Z,0.65
2023-05-19T01:32:47.451Z,0.64
2023-05-19T01:33:47.455Z,0.62
2023-05-19T01:34:47.473Z,0.64
2023-05-19T01:35:47.497Z,0.64
2023-05-19T01:36:47.523Z,0.65
2023-05-19T01:37:47.553Z,0.65
2023-05-19T01:38:47.610Z,0.64
2023-05-19T01:39:47.602Z,0.64
2023-05-19T01:40:47.641Z,0.64
2023-05-19T01:41:47.650Z,0.63
2023-05-19T01:42:47.670Z,0.64
2023-05-19T01:43:47.692Z,0.65
2023-05-19T01:44:47.735Z,0.65
2023-05-19T01:45:47.798Z,0.65
2023-05-19T01:46:47.808Z,0.65
2023-05-19T01:47:47.856Z,0.63
2023-05-19T01:48:47.818Z,0.64
2023-05-19T01:49:47.847Z,0.65
2023-05-19T01:50:47.866Z,0.63
2023-05-19T01:51:47.899Z,0.65
2023-05-19T01:52:47.940Z,0.65
2023-05-19T01:53:47.958Z,0.65
2023-05-19T01:54:47.995Z,0.65
2023-05-19T01:55:48.042Z,0.64
2023-05-19T01:56:48.055Z,0.64
2023-05-19T01:57:48.052Z,0.64
2023-05-19T01:58:48.096Z,0.64
2023-05-19T01:59:48.109Z,0.65
2023-05-19T02:00:48.145Z,0.63
2023-05-19T02:01:48.189Z,0.65
2023-05-19T02:02:48.238Z,0.63
2023-05-19T02:03:48.314Z,0.64
2023-05-19T02:04:48.277Z,0.64
2023-05-19T02:05:48.306Z,0.63
2023-05-19T02:06:48.305Z,0.64
2023-05-19T02:07:48.348Z,0.63
2023-05-19T02:08:48.364Z,0.65
2023-05-19T02:09:48.403Z,0.64
2023-05-19T02:10:48.437Z,0.63
2023-05-19T02:11:48.435Z,0.65
2023-05-19T02:12:48.463Z,0.62
2023-05-19T02:13:48.572Z,0.63
2023-05-19T02:14:48.523Z,0.63
2023-05-19T02:15:48.595Z,0.63
2023-05-19T02:16:48.573Z,0.64
2023-05-19T02:17:48.669Z,0.64
2023-05-19T02:18:48.633Z,0.64
2023-05-19T02:19:48.828Z,0.65
2023-05-19T02:20:48.669Z,0.65
2023-05-19T02:21:48.718Z,0.64
2023-05-19T02:22:48.726Z,0.64
2023-05-19T02:23:48.788Z,0.65
2023-05-19T02:24:48.792Z,0.65
2023-05-19T02:25:48.828Z,0.64
2023-05-19T02:26:48.834Z,0.63
2023-05-19T02:27:48.863Z,0.64
2023-05-19T02:28:48.895Z,0.63
2023-05-19T02:29:48.935Z,0.64
2023-05-19T02:30:48.987Z,0.64
2023-05-19T02:31:49.012Z,0.64
2023-05-19T02:32:49.098Z,0.64
2023-05-19T02:33:49.041Z,0.63
2023-05-19T02:34:49.085Z,0.64
2023-05-19T02:35:49.110Z,0.64
2023-05-19T02:36:49.147Z,0.65
2023-05-19T02:37:49.165Z,0.64
2023-05-19T02:38:49.173Z,0.63
2023-05-19T02:39:49.217Z,0.64
2023-05-19T02:40:49.233Z,0.64
2023-05-19T02:41:49.277Z,0.65
2023-05-19T02:42:49.282Z,0.64
2023-05-19T02:43:49.337Z,0.65
2023-05-19T02:44:49.341Z,0.64
2023-05-19T02:45:49.371Z,0.64
2023-05-19T02:46:49.551Z,0.65
2023-05-19T02:47:49.460Z,0.64
2023-05-19T02:48:49.468Z,0.65
2023-05-19T02:49:49.512Z,0.63
2023-05-19T02:50:49.541Z,0.64
2023-05-19T02:51:49.571Z,0.65
2023-05-19T02:52:49.680Z,0.65
2023-05-19T02:53:49.618Z,0.65
2023-05-19T02:54:49.733Z,0.65
2023-05-19T02:55:49.686Z,0.64
2023-05-19T02:56:49.708Z,0.64
2023-05-19T02:57:49.744Z,0.65
2023-05-19T02:58:49.766Z,0.66
2023-05-19T02:59:49.822Z,0.65
2023-05-19T03:00:49.835Z,0.64
2023-05-19T03:01:49.969Z,0.67
2023-05-19T03:02:49.957Z,0.65
2023-05-19T03:03:50.015Z,0.65
2023-05-19T03:04:49.951Z,0.64
2023-05-19T03:05:49.963Z,0.64
2023-05-19T03:06:50.038Z,0.66
2023-05-19T03:07:50.031Z,0.65
2023-05-19T03:08:50.077Z,0.66
2023-05-19T03:09:50.110Z,0.64
2023-05-19T03:10:50.118Z,0.65
2023-05-19T03:11:50.161Z,0.65
2023-05-19T03:12:50.182Z,0.64
2023-05-19T03:13:50.227Z,0.65
2023-05-19T03:14:50.271Z,0.64
2023-05-19T03:15:50.309Z,0.64
2023-05-19T03:16:50.417Z,0.65
2023-05-19T03:17:50.457Z,0.65
2023-05-19T03:18:50.422Z,0.64
2023-05-19T03:19:50.397Z,0.64
2023-05-19T03:20:50.442Z,0.65
2023-05-19T03:21:50.476Z,0.65
2023-05-19T03:22:50.522Z,0.66
2023-05-19T03:23:50.527Z,0.66
2023-05-19T03:24:50.564Z,0.65
2023-05-19T03:25:50.586Z,0.65
2023-05-19T03:26:50.624Z,0.66
2023-05-19T03:27:50.660Z,0.66
2023-05-19T03:28:50.682Z,0.67
2023-05-19T03:29:50.757Z,0.65
2023-05-19T03:30:50.817Z,0.66
2023-05-19T03:31:50.809Z,0.67
2023-05-19T03:32:50.867Z,0.65
2023-05-19T03:33:50.849Z,0.66
2023-05-19T03:34:50.892Z,0.66
2023-05-19T03:35:50.912Z,0.66
2023-05-19T03:36:50.948Z,0.67
2023-05-19T03:37:50.975Z,0.65
2023-05-19T03:38:51.006Z,0.66
2023-05-19T03:39:51.028Z,0.64
2023-05-19T03:40:51.097Z,0.66
2023-05-19T03:41:51.100Z,0.67
2023-05-19T03:42:51.137Z,0.66
2023-05-19T03:43:51.153Z,0.66
2023-05-19T03:44:51.199Z,0.67
2023-05-19T03:45:51.278Z,0.65
2023-05-19T03:46:51.256Z,0.66
2023-05-19T03:47:51.308Z,0.66
2023-05-19T03:48:51.305Z,0.65
2023-05-19T03:49:51.367Z,0.67
2023-05-19T03:50:51.373Z,0.67
2023-05-19T03:51:51.429Z,0.67
2023-05-19T03:52:51.438Z,0.65
2023-05-19T03:53:51.470Z,0.66
2023-05-19T03:54:51.505Z,0.66
2023-05-19T03:55:51.531Z,0.65
2023-05-19T03:56:51.566Z,0.64
2023-05-19T03:57:51.596Z,0.66
2023-05-19T03:58:51.635Z,0.67
2023-05-19T03:59:51.663Z,0.65
2023-05-19T04:00:51.713Z,0.64
2023-05-19T04:01:51.822Z,0.67
2023-05-19T04:02:51.974Z,0.65
2023-05-19T04:03:51.780Z,0.66
2023-05-19T04:04:51.878Z,0.65
2023-05-19T04:05:51.877Z,0.67
2023-05-19T04:06:51.888Z,0.67
2023-05-19T04:07:51.938Z,0.67
2023-05-19T04:08:51.948Z,0.66
2023-05-19T04:09:52.010Z,0.66
2023-05-19T04:10:52.008Z,0.68
2023-05-19T04:11:52.053Z,0.66
2023-05-19T04:12:52.076Z,0.66
2023-05-19T04:13:52.187Z,0.65
2023-05-19T04:14:52.149Z,0.66
2023-05-19T04:15:52.223Z,0.68
2023-05-19T04:16:53.115Z,0.65
2023-05-19T04:17:52.267Z,0.66
2023-05-19T04:18:52.290Z,0.66
2023-05-19T04:19:52.327Z,0.67
2023-05-19T04:20:52.360Z,0.67
2023-05-19T04:21:52.401Z,0.66
2023-05-19T04:22:52.420Z,0.65
2023-05-19T04:23:52.482Z,0.67
2023-05-19T04:24:52.497Z,0.68
2023-05-19T04:25:52.531Z,0.67
2023-05-19T04:26:52.564Z,0.68
2023-05-19T04:27:52.599Z,0.67
2023-05-19T04:28:52.641Z,0.65
2023-05-19T04:29:52.684Z,0.66
2023-05-19T04:30:52.804Z,0.67
2023-05-19T04:31:52.755Z,0.67
2023-05-19T04:32:52.833Z,0.67
2023-05-19T04:33:52.822Z,0.68
2023-05-19T04:34:52.852Z,0.67
2023-05-19T04:35:52.876Z,0.66
2023-05-19T04:36:53.613Z,0.67
2023-05-19T04:37:52.958Z,0.67
2023-05-19T04:38:52.982Z,0.69
2023-05-19T04:39:53.036Z,0.67
2023-05-19T04:40:53.059Z,0.67
2023-05-19T04:41:53.117Z,0.68
2023-05-19T04:42:53.123Z,0.66
2023-05-19T04:43:53.282Z,0.67
2023-05-19T04:44:53.195Z,0.65
2023-05-19T04:45:53.237Z,0.67
2023-05-19T04:46:53.299Z,0.66
2023-05-19T04:47:53.322Z,0.66
2023-05-19T04:48:53.351Z,0.66
2023-05-19T04:49:53.381Z,0.66
2023-05-19T04:50:53.445Z,0.65
2023-05-19T04:51:55.727Z,0.66
2023-05-19T04:52:53.622Z,0.66
2023-05-19T04:53:53.639Z,0.65
2023-05-19T04:54:53.668Z,0.67
2023-05-19T04:55:53.714Z,0.68
2023-05-19T04:56:53.744Z,0.68
2023-05-19T04:57:53.780Z,0.66
2023-05-19T04:58:53.821Z,0.66
2023-05-19T04:59:53.850Z,0.67
2023-05-19T05:00:53.879Z,0.66
2023-05-19T05:01:53.987Z,0.67
2023-05-19T05:02:54.016Z,0.67
2023-05-19T05:03:54.094Z,0.68
2023-05-19T05:04:54.020Z,0.66
2023-05-19T05:05:54.064Z,0.67
2023-05-19T05:06:54.103Z,0.67
2023-05-19T05:07:54.248Z,0.67
2023-05-19T05:08:54.173Z,0.67
2023-05-19T05:09:54.191Z,0.68
2023-05-19T05:10:54.249Z,0.68
2023-05-19T05:11:54.275Z,0.68
2023-05-19T05:12:54.313Z,0.68
2023-05-19T05:13:54.328Z,0.67
2023-05-19T05:14:54.359Z,0.67
2023-05-19T05:15:54.456Z,0.68
2023-05-19T05:16:54.491Z,0.66
2023-05-19T05:17:54.543Z,0.68
2023-05-19T05:18:54.550Z,0.67
2023-05-19T05:19:54.562Z,0.70
2023-05-19T05:20:54.581Z,0.67
2023-05-19T05:21:54.643Z,0.67
2023-05-19T05:22:54.649Z,0.67
2023-05-19T05:23:54.678Z,0.67
2023-05-19T05:24:54.712Z,0.67
2023-05-19T05:25:54.747Z,0.67
2023-05-19T05:26:54.795Z,0.68
2023-05-19T05:27:54.822Z,0.67
2023-05-19T05:28:54.874Z,0.67
2023-05-19T05:29:55.615Z,0.68
2023-05-19T05:30:54.949Z,0.67
2023-05-19T05:31:54.952Z,0.67
2023-05-19T05:32:55.140Z,0.67
2023-05-19T05:33:55.002Z,0.66
2023-05-19T05:34:55.041Z,0.67
2023-05-19T05:35:55.078Z,0.67
2023-05-19T05:36:55.138Z,0.68
2023-05-19T05:37:55.144Z,0.67
2023-05-19T05:38:55.193Z,0.68
2023-05-19T05:39:55.213Z,0.66
2023-05-19T05:40:55.251Z,0.68
2023-05-19T05:41:55.304Z,0.69
2023-05-19T05:42:55.313Z,0.67
2023-05-19T05:43:55.363Z,0.66
2023-05-19T05:44:55.382Z,0.67
2023-05-19T05:45:55.480Z,0.68
2023-05-19T05:46:55.453Z,0.68
2023-05-19T05:47:55.581Z,0.66
2023-05-19T05:48:55.548Z,0.68
2023-05-19T05:49:55.541Z,0.67
2023-05-19T05:50:55.585Z,0.68
2023-05-19T05:52:05.828Z,0.69
2023-05-19T05:52:56.632Z,0.69
2023-05-19T05:53:55.617Z,0.68
2023-05-19T05:54:55.627Z,0.68
2023-05-19T05:55:55.629Z,0.66
2023-05-19T05:56:55.640Z,0.66
2023-05-19T05:57:55.622Z,0.67
2023-05-19T05:58:55.640Z,0.68
2023-05-19T05:59:55.629Z,0.67
2023-05-19T06:00:55.616Z,0.69
2023-05-19T06:01:55.653Z,0.68
2023-05-19T06:02:55.679Z,0.66
2023-05-19T06:03:55.613Z,0.67
2023-05-19T06:04:55.657Z,0.68
2023-05-19T06:05:55.757Z,0.68
2023-05-19T06:06:55.621Z,0.67
2023-05-19T06:07:55.646Z,0.68
2023-05-19T06:08:55.622Z,0.67
2023-05-19T06:09:55.627Z,0.68
2023-05-19T06:10:55.668Z,0.66
2023-05-19T06:11:55.698Z,0.68
2023-05-19T06:12:55.741Z,0.68
2023-05-19T06:13:55.748Z,0.67
2023-05-19T06:14:55.834Z,0.66
2023-05-19T06:15:55.848Z,0.67
2023-05-19T06:16:55.870Z,0.67
2023-05-19T06:17:55.899Z,0.67
2023-05-19T06:18:55.953Z,0.68
2023-05-19T06:19:55.959Z,0.66
2023-05-19T06:20:55.992Z,0.67
2023-05-19T06:21:56.029Z,0.67
2023-05-19T06:22:56.051Z,0.67
2023-05-19T06:23:56.085Z,0.67
2023-05-19T06:24:56.114Z,0.67
2023-05-19T06:25:56.156Z,0.66
2023-05-19T06:26:56.170Z,0.66
2023-05-19T06:27:56.216Z,0.67
2023-05-19T06:28:56.225Z,0.67
2023-05-19T06:29:56.268Z,0.66
2023-05-19T06:30:56.324Z,0.66
2023-05-19T06:31:56.490Z,0.65
2023-05-19T06:32:56.382Z,0.67
2023-05-19T06:33:56.374Z,0.67
2023-05-19T06:34:56.387Z,0.66
2023-05-19T06:35:56.416Z,0.67
2023-05-19T06:36:56.459Z,0.66
2023-05-19T06:37:56.469Z,0.67
2023-05-19T06:38:56.510Z,0.67
2023-05-19T06:39:56.534Z,0.65
2023-05-19T06:40:56.575Z,0.66
2023-05-19T06:41:56.596Z,0.67
2023-05-19T06:42:56.647Z,0.65
2023-05-19T06:43:56.651Z,0.66
2023-05-19T06:44:56.702Z,0.65
2023-05-19T06:45:56.707Z,0.67
2023-05-19T06:46:56.759Z,0.67
2023-05-19T06:47:56.779Z,0.65
2023-05-19T06:48:56.799Z,0.66
2023-05-19T06:49:57.666Z,0.66
2023-05-19T06:50:56.859Z,0.66
2023-05-19T06:51:56.917Z,0.66
2023-05-19T06:52:56.921Z,0.66
2023-05-19T06:53:56.942Z,0.65
2023-05-19T06:54:56.938Z,0.67
2023-05-19T06:55:59.885Z,0.67
2023-05-19T06:56:56.967Z,0.68
2023-05-19T06:57:56.955Z,0.67
2023-05-19T06:58:56.945Z,0.66
2023-05-19T06:59:56.934Z,0.68
2023-05-19T07:00:56.940Z,0.67
2023-05-19T07:01:56.953Z,0.68
2023-05-19T07:02:57.021Z,0.67
2023-05-19T07:03:57.016Z,0.67
2023-05-19T07:04:56.927Z,0.66
2023-05-19T07:05:56.924Z,0.66
2023-05-19T07:06:56.919Z,0.66
2023-05-19T07:07:56.923Z,0.66
2023-05-19T07:08:56.904Z,0.67
2023-05-19T07:09:56.909Z,0.67
2023-05-19T07:10:56.896Z,0.65
2023-05-19T07:11:56.899Z,0.66
2023-05-19T07:12:56.883Z,0.66
2023-05-19T07:13:56.885Z,0.66
2023-05-19T07:14:56.903Z,0.65
2023-05-19T07:15:56.927Z,0.65
2023-05-19T07:16:56.929Z,0.66
2023-05-19T07:17:56.964Z,0.66
2023-05-19T07:18:56.907Z,0.66
2023-05-19T07:19:56.872Z,0.68
2023-05-19T07:20:56.875Z,0.66
2023-05-19T07:21:56.886Z,0.66
2023-05-19T07:22:56.864Z,0.66
2023-05-19T07:23:56.884Z,0.66
2023-05-19T07:24:56.848Z,0.65
2023-05-19T07:25:57.046Z,0.66
2023-05-19T07:26:56.852Z,0.67
2023-05-19T07:27:56.849Z,0.66
2023-05-19T07:28:57.684Z,0.66
2023-05-19T07:29:56.836Z,0.67
2023-05-19T07:30:56.837Z,0.67
2023-05-19T07:31:56.888Z,0.67
2023-05-19T07:32:56.905Z,0.67
2023-05-19T07:33:56.833Z,0.67
2023-05-19T07:34:56.842Z,0.67
2023-05-19T07:35:56.819Z,0.67
2023-05-19T07:36:56.814Z,0.67
2023-05-19T07:37:56.811Z,0.65
2023-05-19T07:38:56.840Z,0.66
2023-05-19T07:39:56.807Z,0.67
2023-05-19T07:40:56.817Z,0.68
2023-05-19T07:41:56.811Z,0.68
2023-05-19T07:42:56.790Z,0.67
2023-05-19T07:43:56.821Z,0.66
2023-05-19T07:44:56.801Z,0.68
2023-05-19T07:45:56.887Z,0.67
2023-05-19T07:46:57.209Z,0.67
2023-05-19T07:47:56.802Z,0.68
2023-05-19T07:48:56.780Z,0.68
2023-05-19T07:49:56.779Z,0.68
2023-05-19T07:50:56.783Z,0.68
2023-05-19T07:51:56.766Z,0.68
2023-05-19T07:52:56.780Z,0.68
2023-05-19T07:53:56.744Z,0.68
2023-05-19T07:54:56.739Z,0.67
2023-05-19T07:55:58.496Z,0.67
2023-05-19T07:56:56.731Z,0.68
2023-05-19T07:57:56.725Z,0.68
2023-05-19T07:58:56.713Z,0.69
2023-05-19T07:59:56.767Z,0.69
2023-05-19T08:00:56.726Z,0.69
2023-05-19T08:01:56.712Z,0.69
2023-05-19T08:02:56.848Z,0.69
2023-05-19T08:03:56.850Z,0.71
2023-05-19T08:04:56.854Z,0.71
2023-05-19T08:05:56.747Z,0.72
2023-05-19T08:06:56.793Z,0.74
2023-05-19T08:07:56.826Z,0.74
2023-05-19T08:08:56.877Z,0.74
2023-05-19T08:09:56.934Z,0.76
2023-05-19T08:10:56.982Z,0.74
2023-05-19T08:11:57.162Z,0.74
2023-05-19T08:12:57.051Z,0.76
2023-05-19T08:13:57.060Z,0.77
2023-05-19T08:14:58.826Z,0.75
2023-05-19T08:15:57.215Z,0.75
2023-05-19T08:16:57.110Z,0.78
2023-05-19T08:17:57.113Z,0.76
2023-05-19T08:18:57.106Z,0.76
2023-05-19T08:19:57.081Z,0.76
2023-05-19T08:20:57.081Z,0.76
2023-05-19T08:21:57.089Z,0.75
2023-05-19T08:22:57.062Z,0.75
2023-05-19T08:23:57.054Z,0.75
2023-05-19T08:24:57.057Z,0.76
2023-05-19T08:25:57.028Z,0.76
2023-05-19T08:26:57.030Z,0.76
2023-05-19T08:27:57.177Z,0.76
2023-05-19T08:28:57.010Z,0.75
2023-05-19T08:29:56.990Z,0.76
2023-05-19T08:30:57.036Z,0.76
2023-05-19T08:31:56.993Z,0.77
2023-05-19T08:32:56.963Z,0.76
2023-05-19T08:33:56.920Z,0.78
2023-05-19T08:34:56.907Z,0.77
2023-05-19T08:35:57.710Z,0.75
2023-05-19T08:36:56.891Z,0.78
2023-05-19T08:37:56.894Z,0.76
2023-05-19T08:38:56.868Z,0.76
2023-05-19T08:39:56.931Z,0.75
2023-05-19T08:40:56.840Z,0.76
2023-05-19T08:41:56.844Z,0.75
2023-05-19T08:42:56.814Z,0.75
2023-05-19T08:43:56.791Z,0.76
2023-05-19T08:44:56.786Z,0.75
2023-05-19T08:45:56.762Z,0.76
2023-05-19T08:46:56.842Z,0.76
2023-05-19T08:47:56.845Z,0.75
2023-05-19T08:48:56.731Z,0.75
2023-05-19T08:49:56.714Z,0.76
2023-05-19T08:50:56.692Z,0.76
2023-05-19T08:51:56.688Z,0.77
2023-05-19T08:52:56.663Z,0.76
2023-05-19T08:53:56.669Z,0.77
2023-05-19T08:54:56.643Z,0.77
2023-05-19T08:55:56.649Z,0.77
2023-05-19T08:56:56.609Z,0.77
2023-05-19T08:57:56.603Z,0.77
2023-05-19T08:58:56.599Z,0.76
2023-05-19T08:59:56.606Z,0.76
2023-05-19T09:00:56.674Z,0.77
2023-05-19T09:01:56.700Z,0.77
2023-05-19T09:03:06.132Z,0.79
2023-05-19T09:03:57.745Z,0.79
2023-05-19T09:04:56.740Z,0.79
2023-05-19T09:05:56.727Z,0.79
2023-05-19T09:06:56.674Z,0.79
2023-05-19T09:07:56.642Z,0.79
2023-05-19T09:08:56.653Z,0.79
2023-05-19T09:09:56.627Z,0.79
2023-05-19T09:10:56.602Z,0.80
2023-05-19T09:11:56.579Z,0.79
2023-05-19T09:12:56.564Z,0.79
2023-05-19T09:13:56.561Z,0.79
2023-05-19T09:14:56.568Z,0.79
2023-05-19T09:15:56.604Z,0.79
2023-05-19T09:16:56.664Z,0.80
2023-05-19T09:17:57.235Z,0.80
2023-05-19T09:18:56.878Z,0.81
2023-05-19T09:19:56.706Z,0.79
2023-05-19T09:20:56.729Z,0.80
2023-05-19T09:21:56.781Z,0.81
2023-05-19T09:22:56.774Z,0.80
2023-05-19T09:23:56.832Z,0.80
2023-05-19T09:24:56.882Z,0.80
2023-05-19T09:25:56.875Z,0.80
2023-05-19T09:26:57.921Z,0.81
2023-05-19T09:27:56.890Z,0.81
2023-05-19T09:28:56.869Z,0.82
2023-05-19T09:29:56.855Z,0.81
2023-05-19T09:30:56.844Z,0.83
2023-05-19T09:31:56.860Z,0.81
2023-05-19T09:32:56.863Z,0.82
2023-05-19T09:33:56.797Z,0.82
2023-05-19T09:34:56.807Z,0.81
2023-05-19T09:35:56.855Z,0.82
2023-05-19T09:36:56.758Z,0.81
2023-05-19T09:37:56.742Z,0.81
2023-05-19T09:38:56.737Z,0.81
2023-05-19T09:39:56.702Z,0.80
2023-05-19T09:40:56.696Z,0.81
2023-05-19T09:41:56.694Z,0.82
2023-05-19T09:42:56.688Z,0.82
2023-05-19T09:43:56.713Z,0.81
2023-05-19T09:44:56.679Z,0.81
2023-05-19T09:45:56.746Z,0.82
2023-05-19T09:46:56.672Z,0.83
2023-05-19T09:47:56.662Z,0.83
2023-05-19T09:48:56.631Z,0.81
2023-05-19T09:49:56.628Z,0.82
2023-05-19T09:50:56.632Z,0.83
2023-05-19T09:51:56.653Z,0.83
2023-05-19T09:52:56.609Z,0.83
2023-05-19T09:53:56.586Z,0.83
2023-05-19T09:54:56.595Z,0.84
2023-05-19T09:55:56.557Z,0.85
2023-05-19T09:56:56.575Z,0.84
2023-05-19T09:57:56.566Z,0.84
2023-05-19T09:58:56.534Z,0.83
2023-05-19T09:59:56.528Z,0.84
2023-05-19T10:00:56.524Z,0.84
2023-05-19T10:01:56.621Z,0.85
2023-05-19T10:02:56.525Z,0.85
2023-05-19T10:03:56.471Z,0.85
2023-05-19T10:04:56.516Z,0.84
2023-05-19T10:05:56.452Z,0.84
2023-05-19T10:06:56.418Z,0.84
2023-05-19T10:07:56.397Z,0.84
2023-05-19T10:08:57.231Z,0.84
2023-05-19T10:09:58.520Z,0.84
2023-05-19T10:10:56.344Z,0.85
2023-05-19T10:11:56.331Z,0.84
2023-05-19T10:12:56.350Z,0.84
2023-05-19T10:13:56.394Z,0.84
2023-05-19T10:14:56.441Z,0.85
2023-05-19T10:15:59.205Z,0.85
2023-05-19T10:16:56.753Z,0.87
2023-05-19T10:17:56.435Z,0.86
2023-05-19T10:18:56.455Z,0.85
2023-05-19T10:19:56.390Z,0.86
2023-05-19T10:20:56.370Z,0.85
2023-05-19T10:21:56.386Z,0.85
2023-05-19T10:22:56.345Z,0.86
2023-05-19T10:23:56.341Z,0.86
2023-05-19T10:24:56.348Z,0.86
2023-05-19T10:25:56.309Z,0.86
2023-05-19T10:26:56.334Z,0.86
2023-05-19T10:27:56.293Z,0.86
2023-05-19T10:28:56.276Z,0.86
2023-05-19T10:29:56.283Z,0.86
2023-05-19T10:30:56.269Z,0.85
2023-05-19T10:31:56.355Z,0.85
2023-05-19T10:32:56.285Z,0.86
2023-05-19T10:33:56.227Z,0.86
2023-05-19T10:34:56.241Z,0.86
2023-05-19T10:35:56.217Z,0.86
2023-05-19T10:36:56.205Z,0.86
2023-05-19T10:37:56.198Z,0.87
2023-05-19T10:38:56.184Z,0.86
2023-05-19T10:39:56.176Z,0.86
2023-05-19T10:40:56.186Z,0.86
2023-05-19T10:41:56.168Z,0.86
2023-05-19T10:42:56.166Z,0.85
2023-05-19T10:43:56.136Z,0.85
2023-05-19T10:44:56.132Z,0.87
2023-05-19T10:45:56.125Z,0.86
2023-05-19T10:46:57.110Z,0.87
2023-05-19T10:47:56.197Z,0.87
2023-05-19T10:48:56.085Z,0.87
2023-05-19T10:49:56.127Z,0.87
2023-05-19T10:50:56.066Z,0.87
2023-05-19T10:51:56.116Z,0.87
2023-05-19T10:52:56.046Z,0.88
2023-05-19T10:53:56.019Z,0.88
2023-05-19T10:54:56.026Z,0.87
2023-05-19T10:55:56.075Z,0.87
2023-05-19T10:56:56.020Z,0.88
2023-05-19T10:57:55.979Z,0.89
2023-05-19T10:58:55.978Z,0.87
2023-05-19T10:59:55.966Z,0.88
2023-05-19T11:00:55.943Z,0.88
2023-05-19T11:01:56.000Z,0.88
2023-05-19T11:02:55.996Z,0.88
2023-05-19T11:03:56.015Z,0.89
2023-05-19T11:04:55.953Z,0.89
2023-05-19T11:05:56.000Z,0.87
2023-05-19T11:06:56.025Z,0.89
2023-05-19T11:07:56.137Z,0.88
2023-05-19T11:08:56.070Z,0.89
2023-05-19T11:09:56.101Z,0.87
2023-05-19T11:10:56.142Z,0.89
2023-05-19T11:11:56.149Z,0.87
2023-05-19T11:12:58.194Z,0.89
2023-05-19T11:13:56.258Z,0.89
2023-05-19T11:14:56.252Z,0.88
2023-05-19T11:15:56.265Z,0.89
2023-05-19T11:16:56.322Z,0.88
2023-05-19T11:17:56.364Z,0.89
2023-05-19T11:18:56.409Z,0.89
2023-05-19T11:19:56.382Z,0.89
2023-05-19T11:20:56.452Z,0.89
2023-05-19T11:21:56.453Z,0.89
2023-05-19T11:22:56.483Z,0.89
2023-05-19T11:23:56.535Z,0.89
2023-05-19T11:24:56.600Z,0.89
2023-05-19T11:25:56.568Z,0.90
2023-05-19T11:26:56.611Z,0.89
2023-05-19T11:27:56.625Z,0.90
2023-05-19T11:28:56.658Z,0.90
2023-05-19T11:29:56.684Z,0.90
2023-05-19T11:30:56.716Z,0.90
2023-05-19T11:31:56.759Z,0.89
2023-05-19T11:32:56.829Z,0.90
2023-05-19T11:33:56.816Z,0.89
2023-05-19T11:34:56.831Z,0.90
2023-05-19T11:35:56.889Z,0.89
2023-05-19T11:36:56.900Z,0.89
2023-05-19T11:37:56.955Z,0.89
2023-05-19T11:38:56.968Z,0.88
2023-05-19T11:39:56.998Z,0.90
2023-05-19T11:40:57.031Z,0.89
2023-05-19T11:41:57.054Z,0.90
2023-05-19T11:42:57.082Z,0.89
2023-05-19T11:43:57.115Z,0.89
2023-05-19T11:44:57.159Z,0.89
2023-05-19T11:45:57.272Z,0.88
2023-05-19T11:46:57.239Z,0.90
2023-05-19T11:48:02.343Z,0.89
2023-05-19T11:48:58.203Z,0.90
2023-05-19T11:49:57.176Z,0.90
2023-05-19T11:50:57.156Z,0.90
2023-05-19T11:51:57.143Z,0.91
2023-05-19T11:52:57.114Z,0.91
2023-05-19T11:53:57.109Z,0.90
2023-05-19T11:54:57.091Z,0.91
2023-05-19T11:55:57.155Z,0.89
2023-05-19T11:56:57.069Z,0.89
2023-05-19T11:58:03.882Z,0.90
2023-05-19T11:58:58.031Z,0.90
2023-05-19T11:59:57.031Z,0.90
2023-05-19T12:00:57.016Z,0.90
2023-05-19T12:01:57.006Z,0.90
2023-05-19T12:02:57.043Z,0.90
2023-05-19T12:03:57.050Z,0.91
2023-05-19T12:04:56.968Z,0.91
2023-05-19T12:05:56.949Z,0.91
2023-05-19T12:06:56.911Z,0.90
2023-05-19T12:07:56.887Z,0.91
2023-05-19T12:08:56.907Z,0.90
2023-05-19T12:09:56.915Z,0.90
2023-05-19T12:10:56.972Z,0.91
2023-05-19T12:11:56.989Z,0.89
2023-05-19T12:12:57.015Z,0.91
2023-05-19T12:13:57.041Z,0.90
2023-05-19T12:14:57.047Z,0.92
2023-05-19T12:15:57.096Z,0.89
2023-05-19T12:16:57.155Z,0.91
2023-05-19T12:17:57.171Z,0.90
2023-05-19T12:18:57.233Z,0.89
2023-05-19T12:19:57.198Z,0.89
2023-05-19T12:20:57.254Z,0.89
2023-05-19T12:21:57.273Z,0.88
2023-05-19T12:22:57.344Z,0.88
2023-05-19T12:23:57.328Z,0.89
2023-05-19T12:24:57.448Z,0.88
2023-05-19T12:25:57.394Z,0.87
2023-05-19T12:26:57.431Z,0.88
2023-05-19T12:27:58.186Z,0.89
2023-05-19T12:28:57.506Z,0.89
2023-05-19T12:29:57.526Z,0.88
2023-05-19T12:30:57.558Z,0.89
2023-05-19T12:31:57.603Z,0.89
2023-05-19T12:32:57.833Z,0.88
2023-05-19T12:33:57.669Z,0.88
2023-05-19T12:34:57.697Z,0.89
2023-05-19T12:35:57.747Z,0.88
2023-05-19T12:36:57.773Z,0.87
2023-05-19T12:37:57.905Z,0.88
2023-05-19T12:38:57.844Z,0.87
2023-05-19T12:39:57.898Z,0.89
2023-05-19T12:40:57.905Z,0.89
2023-05-19T12:41:57.976Z,0.88
2023-05-19T12:42:57.971Z,0.88
2023-05-19T12:43:58.021Z,0.87
2023-05-19T12:44:58.384Z,0.90
2023-05-19T12:45:58.084Z,0.91
2023-05-19T12:46:58.099Z,0.88
2023-05-19T12:47:58.155Z,0.88
2023-05-19T12:48:58.162Z,0.88
2023-05-19T12:49:58.195Z,0.89
2023-05-19T12:50:58.225Z,0.88
2023-05-19T12:51:59.096Z,0.87
2023-05-19T12:52:58.310Z,0.86
2023-05-19T12:53:58.329Z,0.87
2023-05-19T12:54:58.386Z,0.86
2023-05-19T12:55:58.372Z,0.86
2023-05-19T12:56:58.415Z,0.87
2023-05-19T12:57:58.614Z,0.87
2023-05-19T12:58:58.517Z,0.86
2023-05-19T12:59:58.542Z,0.86
2023-05-19T13:00:58.592Z,0.86
2023-05-19T13:01:58.637Z,0.87
2023-05-19T13:02:58.741Z,0.89
2023-05-19T13:03:58.802Z,0.88
2023-05-19T13:04:58.703Z,0.89
2023-05-19T13:05:58.727Z,0.87
2023-05-19T13:06:58.754Z,0.88
2023-05-19T13:07:58.783Z,0.88
2023-05-19T13:08:58.805Z,0.90
2023-05-19T13:09:58.838Z,0.90
2023-05-19T13:10:58.861Z,0.89
2023-05-19T13:11:58.903Z,0.91
2023-05-19T13:12:58.939Z,0.89
2023-05-19T13:13:58.980Z,0.89
2023-05-19T13:14:59.001Z,0.90
2023-05-19T13:15:59.047Z,0.88
2023-05-19T13:16:59.128Z,0.88
2023-05-19T13:17:59.142Z,0.88
2023-05-19T13:18:59.530Z,0.87